sensor_id;sensor_type;location;lat;lon;timestamp;pressure;altitude;pressure_sealevel;temperature;humidity
18500;BME280;9379;52.134;11.576;2024-01-16T00:00:58;99507.03;;;3.97;93.13
18500;BME280;9379;52.134;11.576;2024-01-16T00:03:27;99515.00;;;3.62;93.29
18500;BME280;9379;52.134;11.576;2024-01-16T00:05:54;99511.44;;;3.63;93.11
18500;BME280;9379;52.134;11.576;2024-01-16T00:08:20;99508.69;;;3.87;92.92
18500;BME280;9379;52.134;11.576;2024-01-16T00:10:47;99515.88;;;3.96;92.10
18500;BME280;9379;52.134;11.576;2024-01-16T00:13:14;99521.59;;;3.79;92.37
18500;BME280;9379;52.134;11.576;2024-01-16T00:15:41;99529.13;;;3.95;92.18
18500;BME280;9379;52.134;11.576;2024-01-16T00:18:08;99537.22;;;3.80;93.25
18500;BME280;9379;52.134;11.576;2024-01-16T00:20:37;99533.19;;;3.88;92.74
18500;BME280;9379;52.134;11.576;2024-01-16T00:23:04;99536.19;;;3.94;92.26
18500;BME280;9379;52.134;11.576;2024-01-16T00:25:30;99552.41;;;3.88;92.88
18500;BME280;9379;52.134;11.576;2024-01-16T00:27:57;99552.88;;;4.16;92.23
18500;BME280;9379;52.134;11.576;2024-01-16T00:30:24;99564.47;;;4.24;91.93
18500;BME280;9379;52.134;11.576;2024-01-16T00:32:51;99561.38;;;4.08;92.63
18500;BME280;9379;52.134;11.576;2024-01-16T00:35:18;99560.44;;;4.09;92.35
18500;BME280;9379;52.134;11.576;2024-01-16T00:37:46;99574.16;;;4.01;92.20
18500;BME280;9379;52.134;11.576;2024-01-16T00:40:13;99579.16;;;4.04;92.01
18500;BME280;9379;52.134;11.576;2024-01-16T00:42:40;99576.44;;;3.84;92.99
18500;BME280;9379;52.134;11.576;2024-01-16T00:45:07;99581.69;;;3.84;92.67
18500;BME280;9379;52.134;11.576;2024-01-16T00:47:34;99581.78;;;3.71;93.41
18500;BME280;9379;52.134;11.576;2024-01-16T00:50:01;99588.81;;;3.81;92.59
18500;BME280;9379;52.134;11.576;2024-01-16T00:52:28;99585.00;;;3.74;92.78
18500;BME280;9379;52.134;11.576;2024-01-16T00:54:56;99591.38;;;3.94;92.25
18500;BME280;9379;52.134;11.576;2024-01-16T00:57:23;99590.28;;;3.86;92.94
18500;BME280;9379;52.134;11.576;2024-01-16T00:59:50;99596.00;;;3.79;93.29
18500;BME280;9379;52.134;11.576;2024-01-16T01:02:17;99601.50;;;3.76;93.33
18500;BME280;9379;52.134;11.576;2024-01-16T01:04:44;99599.03;;;3.97;92.52
18500;BME280;9379;52.134;11.576;2024-01-16T01:07:13;99605.25;;;4.07;92.56
18500;BME280;9379;52.134;11.576;2024-01-16T01:09:40;99602.25;;;4.01;92.33
18500;BME280;9379;52.134;11.576;2024-01-16T01:12:09;99614.78;;;3.97;92.83
18500;BME280;9379;52.134;11.576;2024-01-16T01:14:38;99611.06;;;3.89;93.17
18500;BME280;9379;52.134;11.576;2024-01-16T01:17:05;99616.81;;;3.94;93.24
18500;BME280;9379;52.134;11.576;2024-01-16T01:19:32;99616.69;;;3.84;93.71
18500;BME280;9379;52.134;11.576;2024-01-16T01:21:58;99626.03;;;3.99;92.54
18500;BME280;9379;52.134;11.576;2024-01-16T01:24:25;99612.88;;;3.99;92.39
18500;BME280;9379;52.134;11.576;2024-01-16T01:26:52;99620.28;;;3.83;92.84
18500;BME280;9379;52.134;11.576;2024-01-16T01:29:20;99628.88;;;3.85;92.31
18500;BME280;9379;52.134;11.576;2024-01-16T01:31:47;99631.63;;;3.84;93.18
18500;BME280;9379;52.134;11.576;2024-01-16T01:34:15;99639.88;;;3.55;93.71
18500;BME280;9379;52.134;11.576;2024-01-16T01:36:42;99640.47;;;3.59;92.94
18500;BME280;9379;52.134;11.576;2024-01-16T01:39:09;99646.09;;;3.54;93.39
18500;BME280;9379;52.134;11.576;2024-01-16T01:41:37;99645.13;;;3.90;93.06
18500;BME280;9379;52.134;11.576;2024-01-16T01:44:05;99656.56;;;3.78;93.54
18500;BME280;9379;52.134;11.576;2024-01-16T01:46:34;99652.84;;;3.80;93.89
18500;BME280;9379;52.134;11.576;2024-01-16T01:49:02;99644.56;;;3.63;95.18
18500;BME280;9379;52.134;11.576;2024-01-16T01:51:29;99657.94;;;4.06;94.17
18500;BME280;9379;52.134;11.576;2024-01-16T01:57:13;99665.00;;;4.17;92.98
18500;BME280;9379;52.134;11.576;2024-01-16T01:59:40;99671.94;;;4.06;92.74
18500;BME280;9379;52.134;11.576;2024-01-16T02:02:08;99666.97;;;3.91;93.74
18500;BME280;9379;52.134;11.576;2024-01-16T02:04:36;99684.94;;;3.97;93.00
18500;BME280;9379;52.134;11.576;2024-01-16T02:07:03;99693.53;;;3.99;94.95
18500;BME280;9379;52.134;11.576;2024-01-16T02:09:31;99695.69;;;4.05;96.37
18500;BME280;9379;52.134;11.576;2024-01-16T02:11:58;99695.91;;;4.02;97.09
18500;BME280;9379;52.134;11.576;2024-01-16T02:14:25;99701.91;;;4.15;96.50
18500;BME280;9379;52.134;11.576;2024-01-16T02:16:52;99700.19;;;3.92;97.55
18500;BME280;9379;52.134;11.576;2024-01-16T02:19:20;99696.88;;;4.01;97.58
18500;BME280;9379;52.134;11.576;2024-01-16T02:21:47;99705.75;;;4.11;96.58
18500;BME280;9379;52.134;11.576;2024-01-16T02:24:17;99706.78;;;3.97;96.13
18500;BME280;9379;52.134;11.576;2024-01-16T02:26:45;99707.66;;;4.09;95.54
18500;BME280;9379;52.134;11.576;2024-01-16T02:29:12;99709.28;;;3.88;96.61
18500;BME280;9379;52.134;11.576;2024-01-16T02:31:39;99717.66;;;4.04;95.27
18500;BME280;9379;52.134;11.576;2024-01-16T02:34:06;99716.13;;;4.01;95.00
18500;BME280;9379;52.134;11.576;2024-01-16T02:36:33;99716.63;;;4.06;95.30
18500;BME280;9379;52.134;11.576;2024-01-16T02:39:00;99719.44;;;3.92;94.74
18500;BME280;9379;52.134;11.576;2024-01-16T02:41:28;99713.75;;;3.74;95.95
18500;BME280;9379;52.134;11.576;2024-01-16T02:43:55;99717.34;;;3.73;96.07
18500;BME280;9379;52.134;11.576;2024-01-16T02:46:22;99725.47;;;4.05;95.12
18500;BME280;9379;52.134;11.576;2024-01-16T02:48:50;99725.53;;;3.93;93.80
18500;BME280;9379;52.134;11.576;2024-01-16T02:51:16;99726.94;;;3.86;93.65
18500;BME280;9379;52.134;11.576;2024-01-16T02:53:43;99727.50;;;3.78;93.97
18500;BME280;9379;52.134;11.576;2024-01-16T02:56:10;99730.84;;;3.80;92.68
18500;BME280;9379;52.134;11.576;2024-01-16T02:58:38;99724.94;;;3.65;91.64
18500;BME280;9379;52.134;11.576;2024-01-16T03:01:06;99737.09;;;3.90;91.37
18500;BME280;9379;52.134;11.576;2024-01-16T03:03:32;99725.53;;;3.69;90.46
18500;BME280;9379;52.134;11.576;2024-01-16T03:06:00;99744.66;;;3.47;91.23
18500;BME280;9379;52.134;11.576;2024-01-16T03:08:27;99745.13;;;3.41;90.80
18500;BME280;9379;52.134;11.576;2024-01-16T03:10:54;99751.94;;;3.67;88.88
18500;BME280;9379;52.134;11.576;2024-01-16T03:13:21;99749.59;;;3.75;88.70
18500;BME280;9379;52.134;11.576;2024-01-16T03:15:49;99757.47;;;3.75;89.02
18500;BME280;9379;52.134;11.576;2024-01-16T03:18:16;99757.84;;;3.71;88.25
18500;BME280;9379;52.134;11.576;2024-01-16T03:20:43;99765.00;;;3.80;88.92
18500;BME280;9379;52.134;11.576;2024-01-16T03:23:10;99767.22;;;3.86;89.28
18500;BME280;9379;52.134;11.576;2024-01-16T03:25:37;99765.41;;;3.87;89.59
18500;BME280;9379;52.134;11.576;2024-01-16T03:28:05;99777.09;;;3.59;92.96
18500;BME280;9379;52.134;11.576;2024-01-16T03:30:33;99771.00;;;3.58;93.50
18500;BME280;9379;52.134;11.576;2024-01-16T03:33:03;99774.03;;;3.89;91.58
18500;BME280;9379;52.134;11.576;2024-01-16T03:35:30;99776.38;;;4.16;90.51
18500;BME280;9379;52.134;11.576;2024-01-16T03:37:57;99776.97;;;4.08;90.65
18500;BME280;9379;52.134;11.576;2024-01-16T03:40:24;99779.72;;;4.06;90.71
18500;BME280;9379;52.134;11.576;2024-01-16T03:42:51;99779.81;;;3.57;90.68
18500;BME280;9379;52.134;11.576;2024-01-16T03:45:18;99779.69;;;3.95;90.74
18500;BME280;9379;52.134;11.576;2024-01-16T03:47:45;99776.84;;;3.74;91.11
18500;BME280;9379;52.134;11.576;2024-01-16T03:50:13;99779.63;;;3.84;90.80
18500;BME280;9379;52.134;11.576;2024-01-16T03:52:40;99783.75;;;3.75;91.15
18500;BME280;9379;52.134;11.576;2024-01-16T03:55:07;99781.06;;;3.64;91.29
18500;BME280;9379;52.134;11.576;2024-01-16T03:57:34;99788.13;;;3.64;91.43
18500;BME280;9379;52.134;11.576;2024-01-16T04:00:01;99794.69;;;3.69;91.25
18500;BME280;9379;52.134;11.576;2024-01-16T04:02:30;99792.13;;;3.80;90.37
18500;BME280;9379;52.134;11.576;2024-01-16T04:04:57;99801.56;;;3.72;90.33
18500;BME280;9379;52.134;11.576;2024-01-16T04:07:25;99801.69;;;3.81;90.57
18500;BME280;9379;52.134;11.576;2024-01-16T04:09:52;99810.59;;;3.92;89.45
18500;BME280;9379;52.134;11.576;2024-01-16T04:12:19;99807.88;;;4.04;88.50
18500;BME280;9379;52.134;11.576;2024-01-16T04:14:46;99806.22;;;4.03;89.43
18500;BME280;9379;52.134;11.576;2024-01-16T04:17:13;99821.09;;;3.92;88.35
18500;BME280;9379;52.134;11.576;2024-01-16T04:19:40;99820.66;;;3.98;87.04
18500;BME280;9379;52.134;11.576;2024-01-16T04:22:07;99816.78;;;3.91;88.72
18500;BME280;9379;52.134;11.576;2024-01-16T04:24:36;99823.13;;;3.64;89.29
18500;BME280;9379;52.134;11.576;2024-01-16T04:27:03;99822.56;;;3.72;90.48
18500;BME280;9379;52.134;11.576;2024-01-16T04:29:30;99836.59;;;3.60;90.43
18500;BME280;9379;52.134;11.576;2024-01-16T04:31:57;99835.75;;;3.59;90.88
18500;BME280;9379;52.134;11.576;2024-01-16T04:34:24;99827.75;;;3.61;91.74
18500;BME280;9379;52.134;11.576;2024-01-16T04:36:51;99829.41;;;3.38;92.71
18500;BME280;9379;52.134;11.576;2024-01-16T04:39:18;99826.97;;;3.47;91.81
18500;BME280;9379;52.134;11.576;2024-01-16T04:41:49;99830.16;;;3.64;91.60
18500;BME280;9379;52.134;11.576;2024-01-16T04:44:16;99829.41;;;3.38;91.15
18500;BME280;9379;52.134;11.576;2024-01-16T04:46:42;99827.56;;;3.51;89.87
18500;BME280;9379;52.134;11.576;2024-01-16T04:49:09;99837.34;;;3.49;88.64
18500;BME280;9379;52.134;11.576;2024-01-16T04:51:36;99845.22;;;3.49;88.47
18500;BME280;9379;52.134;11.576;2024-01-16T04:54:03;99843.44;;;3.49;88.54
18500;BME280;9379;52.134;11.576;2024-01-16T04:56:30;99845.97;;;3.51;88.35
18500;BME280;9379;52.134;11.576;2024-01-16T04:58:58;99852.28;;;3.48;88.54
18500;BME280;9379;52.134;11.576;2024-01-16T05:01:25;99858.03;;;3.54;88.79
18500;BME280;9379;52.134;11.576;2024-01-16T05:03:52;99860.06;;;3.37;88.07
18500;BME280;9379;52.134;11.576;2024-01-16T05:06:20;99852.53;;;3.20;89.02
18500;BME280;9379;52.134;11.576;2024-01-16T05:08:47;99858.47;;;3.35;89.04
18500;BME280;9379;52.134;11.576;2024-01-16T05:11:14;99854.91;;;3.48;88.72
18500;BME280;9379;52.134;11.576;2024-01-16T05:13:41;99857.94;;;3.79;88.48
18500;BME280;9379;52.134;11.576;2024-01-16T05:16:13;99858.00;;;3.90;87.54
18500;BME280;9379;52.134;11.576;2024-01-16T05:18:41;99862.13;;;3.45;87.84
18500;BME280;9379;52.134;11.576;2024-01-16T05:21:08;99861.59;;;3.53;88.07
18500;BME280;9379;52.134;11.576;2024-01-16T05:23:35;99862.22;;;3.56;86.62
18500;BME280;9379;52.134;11.576;2024-01-16T05:26:02;99861.00;;;3.49;86.61
18500;BME280;9379;52.134;11.576;2024-01-16T05:31:48;99874.66;;;3.41;86.33
18500;BME280;9379;52.134;11.576;2024-01-16T05:34:14;99877.78;;;3.46;87.35
18500;BME280;9379;52.134;11.576;2024-01-16T05:36:41;99880.69;;;3.67;85.48
18500;BME280;9379;52.134;11.576;2024-01-16T05:39:09;99876.91;;;3.59;87.32
18500;BME280;9379;52.134;11.576;2024-01-16T05:41:36;99884.06;;;3.57;86.91
18500;BME280;9379;52.134;11.576;2024-01-16T05:44:03;99883.13;;;3.58;87.22
18500;BME280;9379;52.134;11.576;2024-01-16T05:46:31;99890.81;;;3.61;86.65
18500;BME280;9379;52.134;11.576;2024-01-16T05:48:59;99899.72;;;3.71;87.22
18500;BME280;9379;52.134;11.576;2024-01-16T05:51:27;99903.75;;;3.51;87.29
18500;BME280;9379;52.134;11.576;2024-01-16T05:53:54;99902.66;;;3.66;87.92
18500;BME280;9379;52.134;11.576;2024-01-16T05:56:21;99904.25;;;3.93;87.69
18500;BME280;9379;52.134;11.576;2024-01-16T05:58:48;99911.50;;;4.02;87.10
18500;BME280;9379;52.134;11.576;2024-01-16T06:01:15;99908.69;;;3.92;87.82
18500;BME280;9379;52.134;11.576;2024-01-16T06:03:42;99908.16;;;3.50;88.69
18500;BME280;9379;52.134;11.576;2024-01-16T06:06:13;99899.22;;;3.53;88.63
18500;BME280;9379;52.134;11.576;2024-01-16T06:08:40;99907.31;;;3.50;88.60
18500;BME280;9379;52.134;11.576;2024-01-16T06:11:07;99919.31;;;3.29;91.89
18500;BME280;9379;52.134;11.576;2024-01-16T06:13:34;99905.25;;;3.30;92.62
18500;BME280;9379;52.134;11.576;2024-01-16T06:16:01;99917.94;;;3.48;93.01
18500;BME280;9379;52.134;11.576;2024-01-16T06:18:28;99919.59;;;3.62;91.98
18500;BME280;9379;52.134;11.576;2024-01-16T06:20:55;99922.94;;;3.77;91.56
18500;BME280;9379;52.134;11.576;2024-01-16T06:23:24;99921.59;;;3.71;91.48
18500;BME280;9379;52.134;11.576;2024-01-16T06:25:51;99921.28;;;4.00;90.66
18500;BME280;9379;52.134;11.576;2024-01-16T06:28:17;99930.75;;;4.26;89.56
18500;BME280;9379;52.134;11.576;2024-01-16T06:30:44;99924.75;;;4.24;89.07
18500;BME280;9379;52.134;11.576;2024-01-16T06:33:11;99935.44;;;4.10;87.99
18500;BME280;9379;52.134;11.576;2024-01-16T06:35:38;99937.28;;;3.97;87.67
18500;BME280;9379;52.134;11.576;2024-01-16T06:38:05;99925.50;;;3.90;87.01
18500;BME280;9379;52.134;11.576;2024-01-16T06:40:34;99927.59;;;3.61;88.17
18500;BME280;9379;52.134;11.576;2024-01-16T06:43:00;99925.88;;;3.72;87.52
18500;BME280;9379;52.134;11.576;2024-01-16T06:45:27;99920.66;;;3.34;88.76
18500;BME280;9379;52.134;11.576;2024-01-16T06:47:54;99928.44;;;3.48;87.23
18500;BME280;9379;52.134;11.576;2024-01-16T06:50:22;99940.94;;;3.32;87.02
18500;BME280;9379;52.134;11.576;2024-01-16T06:52:49;99932.09;;;3.59;87.16
18500;BME280;9379;52.134;11.576;2024-01-16T06:55:15;99927.41;;;3.88;85.54
18500;BME280;9379;52.134;11.576;2024-01-16T06:57:44;99935.94;;;3.78;85.43
18500;BME280;9379;52.134;11.576;2024-01-16T07:00:13;99937.31;;;3.84;85.51
18500;BME280;9379;52.134;11.576;2024-01-16T07:02:40;99940.16;;;3.81;85.08
18500;BME280;9379;52.134;11.576;2024-01-16T07:05:08;99942.69;;;3.70;85.01
18500;BME280;9379;52.134;11.576;2024-01-16T07:07:35;99945.50;;;3.79;84.91
18500;BME280;9379;52.134;11.576;2024-01-16T07:10:03;99949.78;;;3.93;85.22
18500;BME280;9379;52.134;11.576;2024-01-16T07:12:33;99959.81;;;3.88;86.38
18500;BME280;9379;52.134;11.576;2024-01-16T07:15:01;99960.22;;;3.95;85.18
18500;BME280;9379;52.134;11.576;2024-01-16T07:17:28;99951.22;;;4.10;84.67
18500;BME280;9379;52.134;11.576;2024-01-16T07:19:55;99969.38;;;3.89;84.51
18500;BME280;9379;52.134;11.576;2024-01-16T07:22:24;99971.69;;;3.94;84.90
18500;BME280;9379;52.134;11.576;2024-01-16T07:24:50;99970.44;;;3.74;85.12
18500;BME280;9379;52.134;11.576;2024-01-16T07:27:18;99976.63;;;3.86;85.11
18500;BME280;9379;52.134;11.576;2024-01-16T07:29:44;99976.19;;;3.92;85.94
18500;BME280;9379;52.134;11.576;2024-01-16T07:32:13;99981.47;;;3.66;85.42
18500;BME280;9379;52.134;11.576;2024-01-16T07:34:40;99984.00;;;3.68;86.12
18500;BME280;9379;52.134;11.576;2024-01-16T07:37:07;99989.25;;;3.68;86.76
18500;BME280;9379;52.134;11.576;2024-01-16T07:39:33;99991.88;;;3.68;85.34
18500;BME280;9379;52.134;11.576;2024-01-16T07:42:00;99993.53;;;3.81;84.48
18500;BME280;9379;52.134;11.576;2024-01-16T07:44:27;99998.94;;;4.17;84.50
18500;BME280;9379;52.134;11.576;2024-01-16T07:46:54;99993.22;;;4.35;84.10
18500;BME280;9379;52.134;11.576;2024-01-16T07:49:22;99993.88;;;4.50;83.46
18500;BME280;9379;52.134;11.576;2024-01-16T07:51:49;99989.44;;;4.63;82.51
18500;BME280;9379;52.134;11.576;2024-01-16T07:54:16;99984.31;;;4.73;81.71
18500;BME280;9379;52.134;11.576;2024-01-16T07:56:43;99984.31;;;4.25;82.93
18500;BME280;9379;52.134;11.576;2024-01-16T07:59:10;99991.53;;;3.98;83.64
18500;BME280;9379;52.134;11.576;2024-01-16T08:01:37;99982.63;;;4.24;83.06
18500;BME280;9379;52.134;11.576;2024-01-16T08:04:04;99988.13;;;4.21;82.87
18500;BME280;9379;52.134;11.576;2024-01-16T08:06:32;99984.53;;;3.86;83.67
18500;BME280;9379;52.134;11.576;2024-01-16T08:09:00;99993.28;;;3.61;84.41
18500;BME280;9379;52.134;11.576;2024-01-16T08:11:26;99994.13;;;3.61;84.50
18500;BME280;9379;52.134;11.576;2024-01-16T08:13:54;99986.22;;;3.23;84.48
18500;BME280;9379;52.134;11.576;2024-01-16T08:16:21;99996.19;;;3.56;84.39
18500;BME280;9379;52.134;11.576;2024-01-16T08:18:48;99999.78;;;3.68;84.66
18500;BME280;9379;52.134;11.576;2024-01-16T08:21:15;100007.44;;;3.58;84.98
18500;BME280;9379;52.134;11.576;2024-01-16T08:23:43;99999.25;;;3.63;84.28
18500;BME280;9379;52.134;11.576;2024-01-16T08:26:10;100006.28;;;3.75;83.93
18500;BME280;9379;52.134;11.576;2024-01-16T08:28:37;100009.84;;;3.87;84.34
18500;BME280;9379;52.134;11.576;2024-01-16T08:31:04;100007.25;;;3.74;83.68
18500;BME280;9379;52.134;11.576;2024-01-16T08:33:31;100017.50;;;4.02;83.35
18500;BME280;9379;52.134;11.576;2024-01-16T08:35:58;100012.06;;;3.80;83.87
18500;BME280;9379;52.134;11.576;2024-01-16T08:38:25;100011.41;;;4.02;84.03
18500;BME280;9379;52.134;11.576;2024-01-16T08:40:53;100016.97;;;4.10;83.40
18500;BME280;9379;52.134;11.576;2024-01-16T08:43:20;100010.25;;;4.06;84.30
18500;BME280;9379;52.134;11.576;2024-01-16T08:45:47;100020.53;;;4.09;82.86
18500;BME280;9379;52.134;11.576;2024-01-16T08:48:14;100024.56;;;4.38;82.41
18500;BME280;9379;52.134;11.576;2024-01-16T08:50:42;100020.78;;;4.66;80.94
18500;BME280;9379;52.134;11.576;2024-01-16T08:53:08;100030.19;;;4.58;80.91
18500;BME280;9379;52.134;11.576;2024-01-16T08:55:35;100025.16;;;4.18;82.52
18500;BME280;9379;52.134;11.576;2024-01-16T08:58:04;100031.13;;;4.57;81.92
18500;BME280;9379;52.134;11.576;2024-01-16T09:00:30;100035.75;;;4.17;83.35
18500;BME280;9379;52.134;11.576;2024-01-16T09:02:58;100033.81;;;3.95;83.87
18500;BME280;9379;52.134;11.576;2024-01-16T09:05:25;100033.56;;;4.10;82.76
18500;BME280;9379;52.134;11.576;2024-01-16T09:07:52;100036.69;;;4.65;81.11
18500;BME280;9379;52.134;11.576;2024-01-16T09:10:19;100035.56;;;4.80;80.24
18500;BME280;9379;52.134;11.576;2024-01-16T09:12:46;100036.63;;;4.78;80.44
18500;BME280;9379;52.134;11.576;2024-01-16T09:15:15;100032.19;;;4.54;80.59
18500;BME280;9379;52.134;11.576;2024-01-16T09:17:45;100031.34;;;4.30;82.60
18500;BME280;9379;52.134;11.576;2024-01-16T09:20:12;100027.63;;;4.32;82.07
18500;BME280;9379;52.134;11.576;2024-01-16T09:22:39;100041.00;;;4.66;80.91
18500;BME280;9379;52.134;11.576;2024-01-16T09:25:06;100045.00;;;4.35;82.05
18500;BME280;9379;52.134;11.576;2024-01-16T09:27:33;100033.53;;;4.60;82.32
18500;BME280;9379;52.134;11.576;2024-01-16T09:30:00;100041.53;;;4.34;82.25
18500;BME280;9379;52.134;11.576;2024-01-16T09:32:28;100045.34;;;4.30;82.00
18500;BME280;9379;52.134;11.576;2024-01-16T09:34:55;100040.06;;;4.30;83.18
18500;BME280;9379;52.134;11.576;2024-01-16T09:37:23;100036.63;;;4.54;82.37
18500;BME280;9379;52.134;11.576;2024-01-16T09:39:50;100038.13;;;4.93;81.08
18500;BME280;9379;52.134;11.576;2024-01-16T09:42:19;100030.56;;;5.12;80.12
18500;BME280;9379;52.134;11.576;2024-01-16T09:44:47;100033.44;;;5.20;81.03
18500;BME280;9379;52.134;11.576;2024-01-16T09:47:15;100028.09;;;4.74;82.15
18500;BME280;9379;52.134;11.576;2024-01-16T09:49:46;100029.63;;;4.65;82.44
18500;BME280;9379;52.134;11.576;2024-01-16T09:52:13;100034.97;;;4.77;81.04
18500;BME280;9379;52.134;11.576;2024-01-16T09:54:40;100041.31;;;5.09;79.82
18500;BME280;9379;52.134;11.576;2024-01-16T09:57:07;100039.66;;;4.84;79.94
18500;BME280;9379;52.134;11.576;2024-01-16T09:59:36;100037.38;;;5.15;80.00
18500;BME280;9379;52.134;11.576;2024-01-16T10:02:04;100041.59;;;4.93;81.35
18500;BME280;9379;52.134;11.576;2024-01-16T10:04:32;100037.00;;;4.84;81.31
18500;BME280;9379;52.134;11.576;2024-01-16T10:07:01;100027.56;;;5.17;80.55
18500;BME280;9379;52.134;11.576;2024-01-16T10:09:29;100031.59;;;4.98;80.39
18500;BME280;9379;52.134;11.576;2024-01-16T10:11:56;100030.25;;;4.93;81.70
18500;BME280;9379;52.134;11.576;2024-01-16T10:14:24;100028.97;;;4.75;81.94
18500;BME280;9379;52.134;11.576;2024-01-16T10:17:01;100019.59;;;4.47;82.80
18500;BME280;9379;52.134;11.576;2024-01-16T10:19:31;100019.78;;;4.80;81.00
18500;BME280;9379;52.134;11.576;2024-01-16T10:22:03;100029.41;;;4.45;82.39
18500;BME280;9379;52.134;11.576;2024-01-16T10:24:30;100026.72;;;4.81;81.21
18500;BME280;9379;52.134;11.576;2024-01-16T10:26:59;100025.47;;;4.74;81.29
18500;BME280;9379;52.134;11.576;2024-01-16T10:29:28;100032.50;;;4.97;80.89
18500;BME280;9379;52.134;11.576;2024-01-16T10:31:55;100035.63;;;4.67;81.02
18500;BME280;9379;52.134;11.576;2024-01-16T10:34:22;100027.31;;;4.85;81.75
18500;BME280;9379;52.134;11.576;2024-01-16T10:36:51;100033.09;;;4.66;82.25
18500;BME280;9379;52.134;11.576;2024-01-16T10:39:19;100041.50;;;4.71;82.31
18500;BME280;9379;52.134;11.576;2024-01-16T10:41:56;100033.94;;;4.90;81.76
18500;BME280;9379;52.134;11.576;2024-01-16T10:44:24;100016.66;;;4.75;82.27
18500;BME280;9379;52.134;11.576;2024-01-16T10:46:53;100032.31;;;5.01;81.87
18500;BME280;9379;52.134;11.576;2024-01-16T10:49:36;100028.91;;;4.87;80.97
18500;BME280;9379;52.134;11.576;2024-01-16T10:52:04;100029.94;;;4.61;80.88
18500;BME280;9379;52.134;11.576;2024-01-16T10:54:41;100024.19;;;5.04;81.11
18500;BME280;9379;52.134;11.576;2024-01-16T10:57:10;100024.56;;;4.75;81.53
18500;BME280;9379;52.134;11.576;2024-01-16T10:59:42;100029.13;;;4.84;81.16
18500;BME280;9379;52.134;11.576;2024-01-16T11:02:15;100028.59;;;5.03;81.00
18500;BME280;9379;52.134;11.576;2024-01-16T11:04:47;100031.13;;;5.05;80.44
18500;BME280;9379;52.134;11.576;2024-01-16T11:07:15;100021.09;;;4.86;81.40
18500;BME280;9379;52.134;11.576;2024-01-16T11:09:44;100034.09;;;5.00;79.87
18500;BME280;9379;52.134;11.576;2024-01-16T11:12:12;100027.75;;;5.03;79.57
18500;BME280;9379;52.134;11.576;2024-01-16T11:14:43;100026.09;;;5.02;80.42
18500;BME280;9379;52.134;11.576;2024-01-16T11:17:11;100031.63;;;4.62;80.96
18500;BME280;9379;52.134;11.576;2024-01-16T11:19:44;100034.00;;;4.78;81.76
18500;BME280;9379;52.134;11.576;2024-01-16T11:22:11;100030.34;;;4.91;79.96
18500;BME280;9379;52.134;11.576;2024-01-16T11:24:38;100024.81;;;5.18;79.57
18500;BME280;9379;52.134;11.576;2024-01-16T11:27:07;100025.50;;;4.98;80.62
18500;BME280;9379;52.134;11.576;2024-01-16T11:29:34;100025.09;;;4.91;79.86
18500;BME280;9379;52.134;11.576;2024-01-16T11:32:02;100030.16;;;5.06;81.37
18500;BME280;9379;52.134;11.576;2024-01-16T11:34:52;100032.84;;;5.17;79.83
18500;BME280;9379;52.134;11.576;2024-01-16T11:37:26;100021.50;;;4.92;80.35
18500;BME280;9379;52.134;11.576;2024-01-16T11:40:21;100031.38;;;4.78;80.57
18500;BME280;9379;52.134;11.576;2024-01-16T11:42:50;100030.59;;;4.88;80.94
18500;BME280;9379;52.134;11.576;2024-01-16T11:45:51;100031.50;;;5.11;80.07
18500;BME280;9379;52.134;11.576;2024-01-16T11:48:19;100028.34;;;4.71;80.68
18500;BME280;9379;52.134;11.576;2024-01-16T11:50:46;100030.75;;;4.74;81.35
18500;BME280;9379;52.134;11.576;2024-01-16T11:53:35;100024.38;;;4.89;82.03
18500;BME280;9379;52.134;11.576;2024-01-16T11:59:18;100021.19;;;5.08;81.28
18500;BME280;9379;52.134;11.576;2024-01-16T12:01:57;100017.38;;;4.53;82.94
18500;BME280;9379;52.134;11.576;2024-01-16T12:04:24;100017.94;;;5.05;80.35
18500;BME280;9379;52.134;11.576;2024-01-16T12:06:59;100022.22;;;5.30;80.12
18500;BME280;9379;52.134;11.576;2024-01-16T12:09:27;100024.75;;;5.42;80.01
18500;BME280;9379;52.134;11.576;2024-01-16T12:11:57;100027.34;;;5.20;79.41
18500;BME280;9379;52.134;11.576;2024-01-16T12:14:26;100021.34;;;5.18;79.48
18500;BME280;9379;52.134;11.576;2024-01-16T12:16:52;100015.69;;;5.00;80.79
18500;BME280;9379;52.134;11.576;2024-01-16T12:19:19;100018.75;;;5.29;79.96
18500;BME280;9379;52.134;11.576;2024-01-16T12:21:46;100020.88;;;5.13;79.49
18500;BME280;9379;52.134;11.576;2024-01-16T12:24:13;100026.66;;;5.29;80.59
18500;BME280;9379;52.134;11.576;2024-01-16T12:26:40;100024.38;;;4.89;79.60
18500;BME280;9379;52.134;11.576;2024-01-16T12:29:08;100018.91;;;5.04;81.27
18500;BME280;9379;52.134;11.576;2024-01-16T12:31:37;100026.44;;;4.73;81.14
18500;BME280;9379;52.134;11.576;2024-01-16T12:34:08;100022.28;;;4.82;80.25
18500;BME280;9379;52.134;11.576;2024-01-16T12:36:36;100024.53;;;4.99;80.48
18500;BME280;9379;52.134;11.576;2024-01-16T12:39:03;100021.66;;;5.02;80.22
18500;BME280;9379;52.134;11.576;2024-01-16T12:41:36;100025.47;;;5.33;79.48
18500;BME280;9379;52.134;11.576;2024-01-16T12:44:05;100023.56;;;5.35;79.31
18500;BME280;9379;52.134;11.576;2024-01-16T12:46:32;100024.72;;;5.31;80.26
18500;BME280;9379;52.134;11.576;2024-01-16T12:49:03;100016.38;;;5.37;80.69
18500;BME280;9379;52.134;11.576;2024-01-16T12:51:31;100011.56;;;5.31;80.28
18500;BME280;9379;52.134;11.576;2024-01-16T12:54:10;100013.44;;;5.18;80.25
18500;BME280;9379;52.134;11.576;2024-01-16T12:56:38;100016.22;;;5.27;80.32
18500;BME280;9379;52.134;11.576;2024-01-16T12:59:09;100004.19;;;5.01;79.55
18500;BME280;9379;52.134;11.576;2024-01-16T13:01:36;100006.41;;;5.30;79.24
18500;BME280;9379;52.134;11.576;2024-01-16T13:04:08;100003.81;;;5.52;78.98
18500;BME280;9379;52.134;11.576;2024-01-16T13:06:36;100010.94;;;5.16;79.46
18500;BME280;9379;52.134;11.576;2024-01-16T13:09:06;100010.06;;;5.05;79.75
18500;BME280;9379;52.134;11.576;2024-01-16T13:11:48;100016.97;;;4.71;80.53
18500;BME280;9379;52.134;11.576;2024-01-16T13:14:15;100015.34;;;5.16;79.38
18500;BME280;9379;52.134;11.576;2024-01-16T13:16:41;100009.34;;;4.79;81.08
18500;BME280;9379;52.134;11.576;2024-01-16T13:19:16;100013.25;;;4.73;80.64
18500;BME280;9379;52.134;11.576;2024-01-16T13:21:43;100007.91;;;4.75;80.39